sensor_id;sensor_type;location;lat;lon;timestamp;P1;durP1;ratioP1;P2;durP2;ratioP2
80179;SDS011;69505;52.134;5.438;2023-05-07T00:01:17;5.15;;;4.25;;
80179;SDS011;69505;52.134;5.438;2023-05-07T00:03:45;5.82;;;4.13;;
80179;SDS011;69505;52.134;5.438;2023-05-07T00:06:12;5.72;;;3.97;;
80179;SDS011;69505;52.134;5.438;2023-05-07T00:08:39;6.05;;;3.78;;
80179;SDS011;69505;52.134;5.438;2023-05-07T00:11:05;6.10;;;3.90;;
80179;SDS011;69505;52.134;5.438;2023-05-07T00:13:32;6.95;;;4.03;;
80179;SDS011;69505;52.134;5.438;2023-05-07T00:16:02;6.13;;;4.15;;
80179;SDS011;69505;52.134;5.438;2023-05-07T00:18:29;5.55;;;4.15;;
80179;SDS011;69505;52.134;5.438;2023-05-07T00:20:56;6.32;;;4.05;;
80179;SDS011;69505;52.134;5.438;2023-05-07T00:23:22;6.28;;;4.25;;
80179;SDS011;69505;52.134;5.438;2023-05-07T00:25:49;9.52;;;3.95;;
80179;SDS011;69505;52.134;5.438;2023-05-07T00:28:16;6.78;;;4.32;;
80179;SDS011;69505;52.134;5.438;2023-05-07T00:30:42;5.75;;;4.32;;
80179;SDS011;69505;52.134;5.438;2023-05-07T00:33:09;5.32;;;3.90;;
80179;SDS011;69505;52.134;5.438;2023-05-07T00:35:35;5.53;;;4.20;;
80179;SDS011;69505;52.134;5.438;2023-05-07T00:38:02;7.53;;;3.85;;
80179;SDS011;69505;52.134;5.438;2023-05-07T00:40:28;5.00;;;4.05;;
80179;SDS011;69505;52.134;5.438;2023-05-07T00:42:55;5.18;;;4.00;;
80179;SDS011;69505;52.134;5.438;2023-05-07T00:45:27;4.70;;;4.18;;
80179;SDS011;69505;52.134;5.438;2023-05-07T00:47:55;5.20;;;4.05;;
80179;SDS011;69505;52.134;5.438;2023-05-07T00:50:24;5.25;;;3.97;;
80179;SDS011;69505;52.134;5.438;2023-05-07T00:52:52;7.57;;;4.30;;
80179;SDS011;69505;52.134;5.438;2023-05-07T00:55:20;5.93;;;4.40;;
80179;SDS011;69505;52.134;5.438;2023-05-07T00:57:47;7.18;;;4.25;;
80179;SDS011;69505;52.134;5.438;2023-05-07T01:00:14;6.45;;;4.65;;
80179;SDS011;69505;52.134;5.438;2023-05-07T01:02:41;5.72;;;4.35;;
80179;SDS011;69505;52.134;5.438;2023-05-07T01:05:10;5.50;;;4.28;;
80179;SDS011;69505;52.134;5.438;2023-05-07T01:07:40;5.53;;;4.20;;
80179;SDS011;69505;52.134;5.438;2023-05-07T01:10:08;8.48;;;4.25;;
80179;SDS011;69505;52.134;5.438;2023-05-07T01:12:36;6.85;;;4.07;;
80179;SDS011;69505;52.134;5.438;2023-05-07T01:15:04;6.43;;;4.72;;
80179;SDS011;69505;52.134;5.438;2023-05-07T01:17:35;5.60;;;4.25;;
80179;SDS011;69505;52.134;5.438;2023-05-07T01:20:04;5.55;;;4.38;;
80179;SDS011;69505;52.134;5.438;2023-05-07T01:22:34;5.50;;;4.25;;
80179;SDS011;69505;52.134;5.438;2023-05-07T01:25:05;6.15;;;4.07;;
80179;SDS011;69505;52.134;5.438;2023-05-07T01:27:33;6.45;;;4.28;;
80179;SDS011;69505;52.134;5.438;2023-05-07T01:30:01;6.03;;;3.85;;
80179;SDS011;69505;52.134;5.438;2023-05-07T01:32:43;4.63;;;3.83;;
80179;SDS011;69505;52.134;5.438;2023-05-07T01:35:20;6.57;;;4.75;;
80179;SDS011;69505;52.134;5.438;2023-05-07T01:37:55;6.65;;;4.38;;
80179;SDS011;69505;52.134;5.438;2023-05-07T01:40:23;4.93;;;4.22;;
80179;SDS011;69505;52.134;5.438;2023-05-07T01:42:50;7.22;;;4.60;;
80179;SDS011;69505;52.134;5.438;2023-05-07T01:45:18;8.32;;;4.28;;
80179;SDS011;69505;52.134;5.438;2023-05-07T01:47:44;5.88;;;4.10;;
80179;SDS011;69505;52.134;5.438;2023-05-07T01:50:12;5.28;;;3.90;;
80179;SDS011;69505;52.134;5.438;2023-05-07T01:52:39;7.05;;;4.55;;
80179;SDS011;69505;52.134;5.438;2023-05-07T01:55:06;5.63;;;4.40;;
80179;SDS011;69505;52.134;5.438;2023-05-07T01:57:33;5.95;;;4.45;;
80179;SDS011;69505;52.134;5.438;2023-05-07T01:59:59;6.22;;;4.70;;
80179;SDS011;69505;52.134;5.438;2023-05-07T02:02:26;7.13;;;4.90;;
80179;SDS011;69505;52.134;5.438;2023-05-07T02:04:52;7.30;;;4.97;;
80179;SDS011;69505;52.134;5.438;2023-05-07T02:07:19;5.95;;;4.63;;
80179;SDS011;69505;52.134;5.438;2023-05-07T02:09:45;6.78;;;4.22;;
80179;SDS011;69505;52.134;5.438;2023-05-07T02:12:12;6.35;;;4.90;;
80179;SDS011;69505;52.134;5.438;2023-05-07T02:14:39;6.13;;;4.40;;
80179;SDS011;69505;52.134;5.438;2023-05-07T02:17:05;6.80;;;4.15;;
80179;SDS011;69505;52.134;5.438;2023-05-07T02:19:32;7.60;;;4.82;;
80179;SDS011;69505;52.134;5.438;2023-05-07T02:21:58;6.22;;;4.63;;
80179;SDS011;69505;52.134;5.438;2023-05-07T02:24:25;6.13;;;4.40;;
80179;SDS011;69505;52.134;5.438;2023-05-07T02:26:51;7.15;;;5.13;;
80179;SDS011;69505;52.134;5.438;2023-05-07T02:29:18;8.02;;;5.13;;
80179;SDS011;69505;52.134;5.438;2023-05-07T02:31:44;6.78;;;4.53;;
80179;SDS011;69505;52.134;5.438;2023-05-07T02:34:11;6.10;;;5.10;;
80179;SDS011;69505;52.134;5.438;2023-05-07T02:36:37;6.28;;;4.88;;
80179;SDS011;69505;52.134;5.438;2023-05-07T02:39:04;9.65;;;5.13;;
80179;SDS011;69505;52.134;5.438;2023-05-07T02:41:30;8.48;;;5.28;;
80179;SDS011;69505;52.134;5.438;2023-05-07T02:43:57;7.70;;;5.13;;
80179;SDS011;69505;52.134;5.438;2023-05-07T02:46:23;8.45;;;5.03;;
80179;SDS011;69505;52.134;5.438;2023-05-07T02:48:50;6.07;;;4.70;;
80179;SDS011;69505;52.134;5.438;2023-05-07T02:51:20;5.45;;;4.45;;
80179;SDS011;69505;52.134;5.438;2023-05-07T02:53:51;6.47;;;5.03;;
80179;SDS011;69505;52.134;5.438;2023-05-07T02:56:17;7.00;;;5.13;;
80179;SDS011;69505;52.134;5.438;2023-05-07T02:58:44;7.57;;;4.70;;
80179;SDS011;69505;52.134;5.438;2023-05-07T03:01:10;6.55;;;4.63;;
80179;SDS011;69505;52.134;5.438;2023-05-07T03:03:37;5.55;;;4.38;;
80179;SDS011;69505;52.134;5.438;2023-05-07T03:06:04;7.45;;;5.28;;
80179;SDS011;69505;52.134;5.438;2023-05-07T03:08:31;5.95;;;4.57;;
80179;SDS011;69505;52.134;5.438;2023-05-07T03:10:57;6.25;;;4.53;;
80179;SDS011;69505;52.134;5.438;2023-05-07T03:13:24;8.13;;;5.53;;
80179;SDS011;69505;52.134;5.438;2023-05-07T03:15:51;8.65;;;5.15;;
80179;SDS011;69505;52.134;5.438;2023-05-07T03:18:17;7.53;;;4.85;;
80179;SDS011;69505;52.134;5.438;2023-05-07T03:20:44;6.95;;;5.57;;
80179;SDS011;69505;52.134;5.438;2023-05-07T03:23:11;7.50;;;5.15;;
80179;SDS011;69505;52.134;5.438;2023-05-07T03:25:37;6.97;;;5.07;;
80179;SDS011;69505;52.134;5.438;2023-05-07T03:28:04;7.80;;;5.55;;
80179;SDS011;69505;52.134;5.438;2023-05-07T03:30:30;6.82;;;5.65;;
80179;SDS011;69505;52.134;5.438;2023-05-07T03:32:57;6.55;;;5.10;;
80179;SDS011;69505;52.134;5.438;2023-05-07T03:35:23;6.43;;;5.00;;
80179;SDS011;69505;52.134;5.438;2023-05-07T03:37:50;7.78;;;5.35;;
80179;SDS011;69505;52.134;5.438;2023-05-07T03:40:16;8.75;;;4.85;;
80179;SDS011;69505;52.134;5.438;2023-05-07T03:42:43;7.13;;;5.07;;
80179;SDS011;69505;52.134;5.438;2023-05-07T03:45:10;7.22;;;5.20;;
80179;SDS011;69505;52.134;5.438;2023-05-07T03:47:36;8.35;;;5.93;;
80179;SDS011;69505;52.134;5.438;2023-05-07T03:50:03;7.50;;;5.10;;
80179;SDS011;69505;52.134;5.438;2023-05-07T03:52:30;8.85;;;5.05;;
80179;SDS011;69505;52.134;5.438;2023-05-07T03:54:56;6.30;;;4.90;;
80179;SDS011;69505;52.134;5.438;2023-05-07T03:57:23;7.88;;;5.05;;
80179;SDS011;69505;52.134;5.438;2023-05-07T03:59:49;6.22;;;4.90;;
80179;SDS011;69505;52.134;5.438;2023-05-07T04:02:16;9.18;;;5.50;;
80179;SDS011;69505;52.134;5.438;2023-05-07T04:04:42;8.13;;;5.70;;
80179;SDS011;69505;52.134;5.438;2023-05-07T04:07:09;7.28;;;5.60;;
80179;SDS011;69505;52.134;5.438;2023-05-07T04:09:36;8.20;;;5.60;;
80179;SDS011;69505;52.134;5.438;2023-05-07T04:12:02;8.15;;;5.32;;
80179;SDS011;69505;52.134;5.438;2023-05-07T04:14:29;8.10;;;5.13;;
80179;SDS011;69505;52.134;5.438;2023-05-07T04:16:58;7.32;;;5.70;;
80179;SDS011;69505;52.134;5.438;2023-05-07T04:19:25;6.65;;;5.30;;
80179;SDS011;69505;52.134;5.438;2023-05-07T04:21:52;8.68;;;6.43;;
80179;SDS011;69505;52.134;5.438;2023-05-07T04:24:21;7.10;;;5.88;;
80179;SDS011;69505;52.134;5.438;2023-05-07T04:26:48;7.05;;;5.90;;
80179;SDS011;69505;52.134;5.438;2023-05-07T04:29:14;7.25;;;5.97;;
80179;SDS011;69505;52.134;5.438;2023-05-07T04:31:41;9.30;;;6.28;;
80179;SDS011;69505;52.134;5.438;2023-05-07T04:34:10;8.73;;;5.97;;
80179;SDS011;69505;52.134;5.438;2023-05-07T04:36:37;8.20;;;6.25;;
80179;SDS011;69505;52.134;5.438;2023-05-07T04:39:04;8.45;;;6.63;;
80179;SDS011;69505;52.134;5.438;2023-05-07T04:41:31;7.75;;;6.28;;
80179;SDS011;69505;52.134;5.438;2023-05-07T04:43:58;9.73;;;7.07;;
80179;SDS011;69505;52.134;5.438;2023-05-07T04:46:25;8.43;;;6.85;;
80179;SDS011;69505;52.134;5.438;2023-05-07T04:48:52;7.88;;;6.10;;
80179;SDS011;69505;52.134;5.438;2023-05-07T04:51:18;9.27;;;6.72;;
80179;SDS011;69505;52.134;5.438;2023-05-07T04:53:45;8.48;;;6.75;;
80179;SDS011;69505;52.134;5.438;2023-05-07T04:56:11;9.07;;;6.75;;
80179;SDS011;69505;52.134;5.438;2023-05-07T04:58:38;8.75;;;6.65;;
80179;SDS011;69505;52.134;5.438;2023-05-07T05:01:05;9.65;;;6.65;;
80179;SDS011;69505;52.134;5.438;2023-05-07T05:03:32;9.95;;;7.30;;
80179;SDS011;69505;52.134;5.438;2023-05-07T05:05:58;9.32;;;6.82;;
80179;SDS011;69505;52.134;5.438;2023-05-07T05:08:29;8.55;;;6.72;;
80179;SDS011;69505;52.134;5.438;2023-05-07T05:10:56;9.40;;;6.97;;
80179;SDS011;69505;52.134;5.438;2023-05-07T05:13:23;10.07;;;6.78;;
80179;SDS011;69505;52.134;5.438;2023-05-07T05:15:50;11.27;;;7.22;;
80179;SDS011;69505;52.134;5.438;2023-05-07T05:18:16;9.95;;;6.65;;
80179;SDS011;69505;52.134;5.438;2023-05-07T05:20:43;9.88;;;7.15;;
80179;SDS011;69505;52.134;5.438;2023-05-07T05:23:09;10.73;;;6.75;;
80179;SDS011;69505;52.134;5.438;2023-05-07T05:25:36;13.38;;;7.55;;
80179;SDS011;69505;52.134;5.438;2023-05-07T05:28:03;9.63;;;7.30;;
80179;SDS011;69505;52.134;5.438;2023-05-07T05:30:29;10.68;;;7.35;;
80179;SDS011;69505;52.134;5.438;2023-05-07T05:32:56;9.75;;;7.10;;
80179;SDS011;69505;52.134;5.438;2023-05-07T05:35:23;10.95;;;7.38;;
80179;SDS011;69505;52.134;5.438;2023-05-07T05:37:49;10.48;;;6.78;;
80179;SDS011;69505;52.134;5.438;2023-05-07T05:40:16;12.25;;;8.20;;
80179;SDS011;69505;52.134;5.438;2023-05-07T05:42:42;13.07;;;7.40;;
80179;SDS011;69505;52.134;5.438;2023-05-07T05:45:09;13.65;;;7.60;;
80179;SDS011;69505;52.134;5.438;2023-05-07T05:47:36;10.40;;;7.95;;
80179;SDS011;69505;52.134;5.438;2023-05-07T05:50:04;10.68;;;7.43;;
80179;SDS011;69505;52.134;5.438;2023-05-07T05:54:59;11.20;;;7.90;;
80179;SDS011;69505;52.134;5.438;2023-05-07T05:57:25;10.82;;;7.72;;
80179;SDS011;69505;52.134;5.438;2023-05-07T05:59:54;11.20;;;8.00;;
80179;SDS011;69505;52.134;5.438;2023-05-07T06:02:21;10.52;;;8.18;;
80179;SDS011;69505;52.134;5.438;2023-05-07T06:04:48;10.57;;;8.32;;
80179;SDS011;69505;52.134;5.438;2023-05-07T06:07:14;10.57;;;7.93;;
80179;SDS011;69505;52.134;5.438;2023-05-07T06:09:41;12.55;;;8.38;;
80179;SDS011;69505;52.134;5.438;2023-05-07T06:12:07;11.73;;;8.35;;
80179;SDS011;69505;52.134;5.438;2023-05-07T06:14:34;13.73;;;8.68;;
80179;SDS011;69505;52.134;5.438;2023-05-07T06:17:00;10.50;;;8.35;;
80179;SDS011;69505;52.134;5.438;2023-05-07T06:19:27;10.82;;;8.88;;
80179;SDS011;69505;52.134;5.438;2023-05-07T06:21:54;10.77;;;8.68;;
80179;SDS011;69505;52.134;5.438;2023-05-07T06:24:22;12.48;;;8.45;;
80179;SDS011;69505;52.134;5.438;2023-05-07T06:26:49;12.48;;;8.93;;
80179;SDS011;69505;52.134;5.438;2023-05-07T06:29:15;12.25;;;8.52;;
80179;SDS011;69505;52.134;5.438;2023-05-07T06:31:42;10.55;;;8.52;;
80179;SDS011;69505;52.134;5.438;2023-05-07T06:34:09;13.77;;;9.30;;
80179;SDS011;69505;52.134;5.438;2023-05-07T06:36:36;11.13;;;8.75;;
80179;SDS011;69505;52.134;5.438;2023-05-07T06:39:03;11.07;;;9.05;;
80179;SDS011;69505;52.134;5.438;2023-05-07T06:41:29;10.65;;;8.98;;
80179;SDS011;69505;52.134;5.438;2023-05-07T06:43:55;12.48;;;8.50;;
80179;SDS011;69505;52.134;5.438;2023-05-07T06:46:22;12.82;;;9.15;;
80179;SDS011;69505;52.134;5.438;2023-05-07T06:48:49;11.55;;;8.80;;
80179;SDS011;69505;52.134;5.438;2023-05-07T06:51:19;12.00;;;8.40;;
80179;SDS011;69505;52.134;5.438;2023-05-07T06:53:50;14.32;;;8.98;;
80179;SDS011;69505;52.134;5.438;2023-05-07T06:56:17;13.73;;;8.82;;
80179;SDS011;69505;52.134;5.438;2023-05-07T06:58:43;11.75;;;9.18;;
80179;SDS011;69505;52.134;5.438;2023-05-07T07:01:10;13.18;;;8.93;;
80179;SDS011;69505;52.134;5.438;2023-05-07T07:03:36;13.18;;;9.45;;
80179;SDS011;69505;52.134;5.438;2023-05-07T07:06:03;11.52;;;9.07;;
80179;SDS011;69505;52.134;5.438;2023-05-07T07:08:30;12.30;;;9.13;;
80179;SDS011;69505;52.134;5.438;2023-05-07T07:10:57;11.38;;;8.63;;
80179;SDS011;69505;52.134;5.438;2023-05-07T07:13:23;11.20;;;9.20;;
80179;SDS011;69505;52.134;5.438;2023-05-07T07:15:51;12.43;;;9.55;;
80179;SDS011;69505;52.134;5.438;2023-05-07T07:18:19;11.60;;;9.25;;
80179;SDS011;69505;52.134;5.438;2023-05-07T07:20:46;11.18;;;9.02;;
80179;SDS011;69505;52.134;5.438;2023-05-07T07:23:13;11.18;;;8.75;;
80179;SDS011;69505;52.134;5.438;2023-05-07T07:25:40;14.00;;;9.68;;
80179;SDS011;69505;52.134;5.438;2023-05-07T07:28:06;12.18;;;8.88;;
80179;SDS011;69505;52.134;5.438;2023-05-07T07:30:33;12.80;;;9.05;;
80179;SDS011;69505;52.134;5.438;2023-05-07T07:32:59;12.50;;;8.65;;
80179;SDS011;69505;52.134;5.438;2023-05-07T07:37:58;10.13;;;7.78;;
80179;SDS011;69505;52.134;5.438;2023-05-07T07:40:25;10.65;;;8.55;;
80179;SDS011;69505;52.134;5.438;2023-05-07T07:42:52;13.13;;;9.15;;
80179;SDS011;69505;52.134;5.438;2023-05-07T07:45:19;12.35;;;9.02;;
80179;SDS011;69505;52.134;5.438;2023-05-07T07:47:46;14.73;;;9.77;;
80179;SDS011;69505;52.134;5.438;2023-05-07T07:50:13;12.07;;;9.55;;
80179;SDS011;69505;52.134;5.438;2023-05-07T07:52:57;10.88;;;8.90;;
80179;SDS011;69505;52.134;5.438;2023-05-07T07:55:23;12.43;;;9.05;;
80179;SDS011;69505;52.134;5.438;2023-05-07T07:57:50;11.20;;;8.70;;
80179;SDS011;69505;52.134;5.438;2023-05-07T08:00:16;10.88;;;9.02;;
80179;SDS011;69505;52.134;5.438;2023-05-07T08:02:43;10.45;;;8.20;;
80179;SDS011;69505;52.134;5.438;2023-05-07T08:05:10;12.95;;;9.27;;
80179;SDS011;69505;52.134;5.438;2023-05-07T08:07:36;11.88;;;8.98;;
80179;SDS011;69505;52.134;5.438;2023-05-07T08:10:03;12.23;;;8.95;;
80179;SDS011;69505;52.134;5.438;2023-05-07T08:12:30;10.73;;;9.15;;
80179;SDS011;69505;52.134;5.438;2023-05-07T08:14:56;13.07;;;9.25;;
80179;SDS011;69505;52.134;5.438;2023-05-07T08:17:23;11.95;;;9.25;;
80179;SDS011;69505;52.134;5.438;2023-05-07T08:19:50;11.43;;;9.50;;
80179;SDS011;69505;52.134;5.438;2023-05-07T08:22:17;12.65;;;9.18;;
80179;SDS011;69505;52.134;5.438;2023-05-07T08:24:44;13.20;;;8.77;;
80179;SDS011;69505;52.134;5.438;2023-05-07T08:27:11;13.95;;;9.43;;
80179;SDS011;69505;52.134;5.438;2023-05-07T08:29:38;14.68;;;9.80;;
80179;SDS011;69505;52.134;5.438;2023-05-07T08:32:04;13.35;;;9.85;;
80179;SDS011;69505;52.134;5.438;2023-05-07T08:34:31;11.73;;;9.32;;
80179;SDS011;69505;52.134;5.438;2023-05-07T08:36:57;12.77;;;10.63;;
80179;SDS011;69505;52.134;5.438;2023-05-07T08:39:23;13.32;;;10.70;;
80179;SDS011;69505;52.134;5.438;2023-05-07T08:41:50;13.18;;;10.60;;
80179;SDS011;69505;52.134;5.438;2023-05-07T08:44:21;13.63;;;10.18;;
80179;SDS011;69505;52.134;5.438;2023-05-07T08:46:49;12.13;;;10.23;;
80179;SDS011;69505;52.134;5.438;2023-05-07T08:49:20;14.55;;;11.38;;
80179;SDS011;69505;52.134;5.438;2023-05-07T08:51:46;14.70;;;10.60;;
80179;SDS011;69505;52.134;5.438;2023-05-07T08:54:15;13.15;;;9.88;;
80179;SDS011;69505;52.134;5.438;2023-05-07T08:56:43;12.48;;;10.40;;
80179;SDS011;69505;52.134;5.438;2023-05-07T08:59:09;13.55;;;10.50;;
80179;SDS011;69505;52.134;5.438;2023-05-07T09:01:36;16.77;;;11.00;;
80179;SDS011;69505;52.134;5.438;2023-05-07T09:04:03;14.43;;;10.20;;
80179;SDS011;69505;52.134;5.438;2023-05-07T09:06:30;16.05;;;9.98;;
80179;SDS011;69505;52.134;5.438;2023-05-07T09:08:57;14.48;;;10.40;;
80179;SDS011;69505;52.134;5.438;2023-05-07T09:11:24;14.02;;;11.45;;
80179;SDS011;69505;52.134;5.438;2023-05-07T09:13:55;13.95;;;10.70;;
80179;SDS011;69505;52.134;5.438;2023-05-07T09:16:25;13.57;;;11.20;;
80179;SDS011;69505;52.134;5.438;2023-05-07T09:18:53;14.85;;;10.80;;
80179;SDS011;69505;52.134;5.438;2023-05-07T09:21:21;13.20;;;11.10;;
80179;SDS011;69505;52.134;5.438;2023-05-07T09:23:50;13.43;;;10.95;;
80179;SDS011;69505;52.134;5.438;2023-05-07T09:26:17;13.20;;;11.50;;
80179;SDS011;69505;52.134;5.438;2023-05-07T09:28:44;13.00;;;10.90;;
80179;SDS011;69505;52.134;5.438;2023-05-07T09:31:12;14.63;;;11.50;;
80179;SDS011;69505;52.134;5.438;2023-05-07T09:33:39;14.20;;;11.07;;
80179;SDS011;69505;52.134;5.438;2023-05-07T09:36:07;14.68;;;10.55;;
80179;SDS011;69505;52.134;5.438;2023-05-07T09:38:35;14.32;;;10.40;;
80179;SDS011;69505;52.134;5.438;2023-05-07T09:41:06;12.85;;;9.77;;
80179;SDS011;69505;52.134;5.438;2023-05-07T09:43:39;12.25;;;9.23;;
80179;SDS011;69505;52.134;5.438;2023-05-07T09:46:13;13.50;;;9.95;;
80179;SDS011;69505;52.134;5.438;2023-05-07T09:48:42;12.38;;;10.15;;
80179;SDS011;69505;52.134;5.438;2023-05-07T09:53:41;12.40;;;9.25;;
80179;SDS011;69505;52.134;5.438;2023-05-07T09:56:09;13.88;;;10.23;;
80179;SDS011;69505;52.134;5.438;2023-05-07T09:58:37;15.07;;;11.25;;
80179;SDS011;69505;52.134;5.438;2023-05-07T10:01:07;13.35;;;10.93;;
80179;SDS011;69505;52.134;5.438;2023-05-07T10:03:36;14.27;;;10.13;;
80179;SDS011;69505;52.134;5.438;2023-05-07T10:06:05;13.27;;;10.68;;
80179;SDS011;69505;52.134;5.438;2023-05-07T10:11:01;13.48;;;10.07;;
80179;SDS011;69505;52.134;5.438;2023-05-07T10:13:29;14.52;;;10.77;;
80179;SDS011;69505;52.134;5.438;2023-05-07T10:15:56;16.40;;;10.90;;
80179;SDS011;69505;52.134;5.438;2023-05-07T10:18:23;13.98;;;10.45;;
80179;SDS011;69505;52.134;5.438;2023-05-07T10:20:56;14.55;;;10.80;;
80179;SDS011;69505;52.134;5.438;2023-05-07T10:23:44;14.48;;;10.32;;
80179;SDS011;69505;52.134;5.438;2023-05-07T10:26:14;13.10;;;10.57;;
80179;SDS011;69505;52.134;5.438;2023-05-07T10:28:45;13.75;;;10.57;;
80179;SDS011;69505;52.134;5.438;2023-05-07T10:31:23;14.00;;;10.80;;
80179;SDS011;69505;52.134;5.438;2023-05-07T10:34:09;14.10;;;9.75;;
80179;SDS011;69505;52.134;5.438;2023-05-07T10:36:39;15.15;;;10.50;;
80179;SDS011;69505;52.134;5.438;2023-05-07T10:39:06;15.75;;;10.13;;
80179;SDS011;69505;52.134;5.438;2023-05-07T10:41:32;13.60;;;10.70;;
80179;SDS011;69505;52.134;5.438;2023-05-07T10:43:59;12.73;;;10.07;;
80179;SDS011;69505;52.134;5.438;2023-05-07T10:46:29;12.40;;;9.40;;
80179;SDS011;69505;52.134;5.438;2023-05-07T10:51:27;13.70;;;9.35;;
80179;SDS011;69505;52.134;5.438;2023-05-07T10:56:45;12.52;;;9.45;;
80179;SDS011;69505;52.134;5.438;2023-05-07T10:59:30;12.57;;;9.57;;
80179;SDS011;69505;52.134;5.438;2023-05-07T11:01:58;14.27;;;9.25;;
80179;SDS011;69505;52.134;5.438;2023-05-07T11:04:29;13.77;;;10.15;;
80179;SDS011;69505;52.134;5.438;2023-05-07T11:15:10;14.05;;;10.25;;
80179;SDS011;69505;52.134;5.438;2023-05-07T11:17:56;12.32;;;9.48;;
80179;SDS011;69505;52.134;5.438;2023-05-07T11:26:00;13.88;;;10.60;;
80179;SDS011;69505;52.134;5.438;2023-05-07T11:28:30;14.88;;;10.45;;
80179;SDS011;69505;52.134;5.438;2023-05-07T11:30:57;14.15;;;10.57;;
80179;SDS011;69505;52.134;5.438;2023-05-07T11:33:24;14.15;;;10.73;;
80179;SDS011;69505;52.134;5.438;2023-05-07T11:35:53;13.05;;;10.13;;
80179;SDS011;69505;52.134;5.438;2023-05-07T11:38:20;16.73;;;10.70;;
80179;SDS011;69505;52.134;5.438;2023-05-07T11:40:54;13.00;;;10.43;;
80179;SDS011;69505;52.134;5.438;2023-05-07T11:43:22;15.75;;;10.93;;
80179;SDS011;69505;52.134;5.438;2023-05-07T11:45:48;13.95;;;10.23;;
80179;SDS011;69505;52.134;5.438;2023-05-07T11:48:16;12.65;;;10.68;;
80179;SDS011;69505;52.134;5.438;2023-05-07T11:50:53;14.55;;;11.57;;
80179;SDS011;69505;52.134;5.438;2023-05-07T11:53:26;17.60;;;11.25;;
80179;SDS011;69505;52.134;5.438;2023-05-07T11:55:53;13.52;;;10.57;;
80179;SDS011;69505;52.134;5.438;2023-05-07T11:58:22;14.77;;;10.35;;
80179;SDS011;69505;52.134;5.438;2023-05-07T12:00:50;13.75;;;10.52;;
80179;SDS011;69505;52.134;5.438;2023-05-07T12:03:17;17.00;;;11.20;;
80179;SDS011;69505;52.134;5.438;2023-05-07T12:05:44;15.35;;;11.18;;
80179;SDS011;69505;52.134;5.438;2023-05-07T12:08:18;12.90;;;10.40;;
80179;SDS011;69505;52.134;5.438;2023-05-07T12:10:48;13.20;;;9.88;;
80179;SDS011;69505;52.134;5.438;2023-05-07T12:13:19;16.95;;;11.05;;
80179;SDS011;69505;52.134;5.438;2023-05-07T12:15:50;14.82;;;10.60;;
80179;SDS011;69505;52.134;5.438;2023-05-07T12:18:21;13.77;;;11.43;;
80179;SDS011;69505;52.134;5.438;2023-05-07T12:20:49;12.32;;;9.98;;
80179;SDS011;69505;52.134;5.438;2023-05-07T12:23:16;14.95;;;10.25;;
80179;SDS011;69505;52.134;5.438;2023-05-07T12:25:43;14.85;;;10.10;;
80179;SDS011;69505;52.134;5.438;2023-05-07T12:28:13;16.63;;;10.25;;
80179;SDS011;69505;52.134;5.438;2023-05-07T12:30:45;14.55;;;10.55;;
80179;SDS011;69505;52.134;5.438;2023-05-07T12:33:17;12.50;;;10.55;;
80179;SDS011;69505;52.134;5.438;2023-05-07T12:35:47;15.13;;;9.80;;
80179;SDS011;69505;52.134;5.438;2023-05-07T12:38:15;16.40;;;10.45;;
80179;SDS011;69505;52.134;5.438;2023-05-07T12:43:15;10.43;;;8.65;;
80179;SDS011;69505;52.134;5.438;2023-05-07T12:46:00;13.07;;;7.80;;
80179;SDS011;69505;52.134;5.438;2023-05-07T12:48:29;9.57;;;8.00;;
80179;SDS011;69505;52.134;5.438;2023-05-07T12:50:56;10.15;;;6.85;;
80179;SDS011;69505;52.134;5.438;2023-05-07T12:53:24;6.70;;;4.80;;
80179;SDS011;69505;52.134;5.438;2023-05-07T13:00:49;11.70;;;8.05;;
80179;SDS011;69505;52.134;5.438;2023-05-07T13:03:30;11.15;;;7.45;;
80179;SDS011;69505;52.134;5.438;2023-05-07T13:06:05;12.65;;;7.53;;
80179;SDS011;69505;52.134;5.438;2023-05-07T13:08:34;9.73;;;7.60;;
80179;SDS011;69505;52.134;5.438;2023-05-07T13:11:03;8.00;;;6.32;;
80179;SDS011;69505;52.134;5.438;2023-05-07T13:13:31;10.00;;;6.07;;
80179;SDS011;69505;52.134;5.438;2023-05-07T13:15:58;10.05;;;7.68;;
80179;SDS011;69505;52.134;5.438;2023-05-07T13:18:26;9.55;;;6.97;;
80179;SDS011;69505;52.134;5.438;2023-05-07T13:20:53;11.20;;;6.90;;
80179;SDS011;69505;52.134;5.438;2023-05-07T13:23:20;10.50;;;7.57;;
80179;SDS011;69505;52.134;5.438;2023-05-07T13:25:47;9.88;;;7.63;;
80179;SDS011;69505;52.134;5.438;2023-05-07T13:28:14;9.32;;;8.20;;
80179;SDS011;69505;52.134;5.438;2023-05-07T13:30:41;11.93;;;8.60;;
80179;SDS011;69505;52.134;5.438;2023-05-07T13:33:08;10.80;;;7.65;;
80179;SDS011;69505;52.134;5.438;2023-05-07T13:35:35;11.95;;;8.48;;
80179;SDS011;69505;52.134;5.438;2023-05-07T13:38:02;11.63;;;8.65;;
80179;SDS011;69505;52.134;5.438;2023-05-07T13:40:28;10.73;;;8.65;;
80179;SDS011;69505;52.134;5.438;2023-05-07T13:42:56;9.57;;;8.15;;
80179;SDS011;69505;52.134;5.438;2023-05-07T13:45:24;9.85;;;7.68;;
80179;SDS011;69505;52.134;5.438;2023-05-07T13:47:52;15.55;;;8.80;;
80179;SDS011;69505;52.134;5.438;2023-05-07T13:50:18;11.05;;;8.68;;
80179;SDS011;69505;52.134;5.438;2023-05-07T13:52:45;11.90;;;8.70;;
80179;SDS011;69505;52.134;5.438;2023-05-07T13:55:20;11.20;;;9.35;;
80179;SDS011;69505;52.134;5.438;2023-05-07T13:57:47;12.65;;;8.93;;
80179;SDS011;69505;52.134;5.438;2023-05-07T14:00:21;11.85;;;8.82;;
80179;SDS011;69505;52.134;5.438;2023-05-07T14:02:47;11.65;;;8.48;;
80179;SDS011;69505;52.134;5.438;2023-05-07T14:05:14;10.80;;;7.72;;
80179;SDS011;69505;52.134;5.438;2023-05-07T14:07:40;11.30;;;8.75;;
80179;SDS011;69505;52.134;5.438;2023-05-07T14:10:07;13.55;;;8.43;;
80179;SDS011;69505;52.134;5.438;2023-05-07T14:12:34;9.07;;;7.75;;
80179;SDS011;69505;52.134;5.438;2023-05-07T14:15:01;10.73;;;7.32;;
80179;SDS011;69505;52.134;5.438;2023-05-07T14:17:27;13.65;;;8.70;;
80179;SDS011;69505;52.134;5.438;2023-05-07T14:19:54;11.70;;;8.25;;
80179;SDS011;69505;52.134;5.438;2023-05-07T14:22:21;12.05;;;8.73;;
80179;SDS011;69505;52.134;5.438;2023-05-07T14:24:49;11.38;;;8.77;;
80179;SDS011;69505;52.134;5.438;2023-05-07T14:27:31;12.68;;;8.77;;
80179;SDS011;69505;52.134;5.438;2023-05-07T14:29:58;13.40;;;8.85;;
80179;SDS011;69505;52.134;5.438;2023-05-07T14:32:25;13.07;;;9.07;;
80179;SDS011;69505;52.134;5.438;2023-05-07T14:34:51;14.63;;;8.52;;
80179;SDS011;69505;52.134;5.438;2023-05-07T14:37:19;11.10;;;7.78;;
80179;SDS011;69505;52.134;5.438;2023-05-07T14:39:46;12.38;;;7.70;;
80179;SDS011;69505;52.134;5.438;2023-05-07T14:42:16;9.63;;;7.82;;
80179;SDS011;69505;52.134;5.438;2023-05-07T14:44:43;11.02;;;7.80;;
80179;SDS011;69505;52.134;5.438;2023-05-07T14:47:11;12.25;;;7.88;;
80179;SDS011;69505;52.134;5.438;2023-05-07T14:49:38;9.48;;;7.10;;
80179;SDS011;69505;52.134;5.438;2023-05-07T14:52:04;11.05;;;6.68;;
80179;SDS011;69505;52.134;5.438;2023-05-07T14:54:36;9.38;;;6.72;;
80179;SDS011;69505;52.134;5.438;2023-05-07T14:57:04;10.65;;;7.07;;
80179;SDS011;69505;52.134;5.438;2023-05-07T14:59:32;8.27;;;6.15;;
80179;SDS011;69505;52.134;5.438;2023-05-07T15:01:59;10.77;;;7.18;;
80179;SDS011;69505;52.134;5.438;2023-05-07T15:04:28;9.68;;;6.97;;
80179;SDS011;69505;52.134;5.438;2023-05-07T15:06:54;10.30;;;7.05;;
80179;SDS011;69505;52.134;5.438;2023-05-07T15:09:22;9.38;;;6.78;;
80179;SDS011;69505;52.134;5.438;2023-05-07T15:11:48;10.65;;;7.03;;
80179;SDS011;69505;52.134;5.438;2023-05-07T15:14:15;8.20;;;6.72;;
80179;SDS011;69505;52.134;5.438;2023-05-07T15:16:41;9.35;;;7.18;;
80179;SDS011;69505;52.134;5.438;2023-05-07T15:19:08;10.35;;;7.20;;